Time;durP1;ratioP1;P1;durP2;ratioP2;P2;SDS_P1;SDS_P2;PMS_P1;PMS_P2;Temp;Humidity;BMP_temperature;BMP_pressure;BME280_temperature;BME280_humidity;BME280_pressure;Samples;Min_cycle;Max_cycle;Signal;HPM_P1;HPM_P2
2023/07/25 00:02:23;;;;;;;6.50;3.77;;;16.90;99.90;;;;;;5098505;28;20166;-44
2023/07/25 00:04:49;;;;;;;9.73;4.77;;;16.90;99.90;;;;;;5094941;28;20167;-45
2023/07/25 00:07:15;;;;;;;7.80;4.57;;;16.90;99.90;;;;;;5095354;28;20445;-44
2023/07/25 00:09:40;;;;;;;7.67;4.83;;;16.80;99.90;;;;;;5097048;28;20444;-44
2023/07/25 00:12:06;;;;;;;8.03;3.87;;;16.80;99.90;;;;;;5098102;28;20205;-45
2023/07/25 00:14:33;;;;;;;9.17;4.30;;;16.80;99.90;;;;;;5098393;28;20592;-47
2023/07/25 00:16:59;;;;;;;8.50;3.57;;;16.80;99.90;;;;;;5115299;28;20160;-46
2023/07/25 00:19:25;;;;;;;8.43;4.50;;;16.80;99.90;;;;;;5097963;28;20191;-43
2023/07/25 00:21:51;;;;;;;7.43;3.53;;;16.70;99.90;;;;;;5097898;28;20194;-45
2023/07/25 00:24:17;;;;;;;9.60;4.57;;;16.80;99.90;;;;;;5115945;28;20194;-46
2023/07/25 00:26:43;;;;;;;9.67;4.77;;;16.70;99.90;;;;;;5115128;28;20232;-43
2023/07/25 00:29:08;;;;;;;8.03;4.73;;;16.70;99.90;;;;;;5097960;28;20163;-44
2023/07/25 00:31:34;;;;;;;9.67;5.10;;;16.70;99.90;;;;;;5097205;28;20454;-44
2023/07/25 00:33:59;;;;;;;8.83;4.73;;;16.60;99.90;;;;;;5096784;28;20183;-46
2023/07/25 00:36:26;;;;;;;7.17;4.40;;;16.70;99.90;;;;;;5097263;28;20205;-44
2023/07/25 00:38:51;;;;;;;6.97;4.67;;;16.70;99.90;;;;;;5097086;28;20195;-47
2023/07/25 00:41:17;;;;;;;8.77;4.53;;;16.70;99.90;;;;;;5097064;28;20234;-45
2023/07/25 00:43:42;;;;;;;5.60;3.97;;;16.70;99.90;;;;;;5097238;28;20218;-43
2023/07/25 00:46:08;;;;;;;8.67;4.07;;;16.60;99.90;;;;;;5097419;28;20186;-46
2023/07/25 00:48:33;;;;;;;6.23;4.30;;;16.60;99.90;;;;;;5097308;28;20176;-45
2023/07/25 00:50:59;;;;;;;8.90;4.10;;;16.50;99.90;;;;;;5097957;28;20614;-45
2023/07/25 00:53:26;;;;;;;6.80;4.87;;;16.50;99.90;;;;;;5098196;28;20172;-43
2023/07/25 00:55:51;;;;;;;6.63;4.70;;;16.50;99.90;;;;;;5097856;28;20232;-43
2023/07/25 00:58:17;;;;;;;11.13;5.17;;;16.50;99.90;;;;;;5094306;28;20219;-43
2023/07/25 01:00:44;;;;;;;5.83;4.67;;;16.50;99.90;;;;;;5093612;28;20176;-43
2023/07/25 01:03:11;;;;;;;8.60;3.90;;;16.40;99.90;;;;;;5093768;28;20573;-43
2023/07/25 01:05:44;;;;;;;6.03;4.00;;;16.40;99.90;;;;;;5093073;28;20274;-47
2023/07/25 01:08:09;;;;;;;8.13;4.60;;;16.40;99.90;;;;;;5093606;28;20198;-43
2023/07/25 01:10:38;;;;;;;5.33;4.70;;;16.40;99.90;;;;;;5092530;28;20196;-46
2023/07/25 01:13:04;;;;;;;8.60;4.00;;;16.40;99.90;;;;;;5092165;28;20172;-44
2023/07/25 01:15:30;;;;;;;8.60;5.73;;;16.40;99.90;;;;;;5093579;28;20228;-48
2023/07/25 01:17:56;;;;;;;5.53;4.97;;;16.40;99.90;;;;;;5093107;28;20456;-45
2023/07/25 01:20:23;;;;;;;9.00;4.67;;;16.40;99.90;;;;;;5092849;28;20176;-45
2023/07/25 01:22:50;;;;;;;12.83;5.37;;;16.40;99.90;;;;;;5095006;28;20470;-44
2023/07/25 01:25:19;;;;;;;7.70;4.20;;;16.40;99.90;;;;;;5094001;28;20175;-43
2023/07/25 01:27:44;;;;;;;6.03;4.03;;;16.40;99.90;;;;;;5093147;28;20180;-44
2023/07/25 01:30:10;;;;;;;8.60;3.93;;;16.40;99.90;;;;;;5090762;28;20300;-46
2023/07/25 01:32:36;;;;;;;6.83;3.87;;;16.40;99.90;;;;;;5092548;28;20578;-45
2023/07/25 01:35:01;;;;;;;10.20;5.27;;;16.40;99.90;;;;;;5092138;28;20176;-46
2023/07/25 01:37:27;;;;;;;7.10;4.37;;;16.40;99.90;;;;;;5092641;28;20234;-44
2023/07/25 01:39:52;;;;;;;6.50;3.80;;;16.40;99.90;;;;;;5092677;28;20232;-43
2023/07/25 01:42:18;;;;;;;9.77;4.87;;;16.40;99.90;;;;;;5095587;28;20172;-44
2023/07/25 01:44:43;;;;;;;6.83;4.50;;;16.40;99.90;;;;;;5095051;28;20176;-43
2023/07/25 01:47:09;;;;;;;12.57;6.40;;;16.30;99.90;;;;;;5095117;28;20196;-43
2023/07/25 01:49:34;;;;;;;10.70;5.90;;;16.30;99.90;;;;;;5094273;28;20251;-44
2023/07/25 01:52:00;;;;;;;8.13;6.27;;;16.10;99.90;;;;;;5096223;28;20200;-43
2023/07/25 01:54:25;;;;;;;11.47;6.67;;;16.20;99.90;;;;;;5096304;28;20571;-45
2023/07/25 01:56:51;;;;;;;11.33;6.57;;;16.20;99.90;;;;;;5097247;28;20168;-45
2023/07/25 01:59:18;;;;;;;7.60;5.47;;;16.20;99.90;;;;;;5086742;28;20220;-44
2023/07/25 02:01:43;;;;;;;7.87;4.77;;;16.10;99.90;;;;;;5097459;28;20266;-44
2023/07/25 02:04:09;;;;;;;8.57;4.73;;;16.10;99.90;;;;;;5079427;28;20260;-43
2023/07/25 02:06:34;;;;;;;10.57;4.57;;;16.10;99.90;;;;;;5078879;28;20535;-44
2023/07/25 02:09:00;;;;;;;7.70;4.50;;;16.10;99.90;;;;;;5079105;28;20262;-44
2023/07/25 02:11:25;;;;;;;7.10;4.57;;;16.00;99.90;;;;;;5097150;28;20295;-44
2023/07/25 02:13:51;;;;;;;10.23;4.47;;;16.00;99.90;;;;;;5079610;28;20168;-47
2023/07/25 02:16:16;;;;;;;10.90;4.30;;;16.00;99.90;;;;;;5079556;28;20178;-45
2023/07/25 02:18:42;;;;;;;5.57;4.37;;;15.90;99.90;;;;;;5096990;28;20176;-45
2023/07/25 02:21:08;;;;;;;6.50;3.97;;;16.00;99.90;;;;;;5080389;28;20172;-46
2023/07/25 02:23:33;;;;;;;7.13;3.80;;;16.00;99.90;;;;;;5080542;28;20248;-47
2023/07/25 02:26:11;;;;;;;8.10;3.70;;;15.90;99.90;;;;;;5097799;28;20613;-44
2023/07/25 02:28:37;;;;;;;5.07;3.93;;;15.90;99.90;;;;;;5079822;28;20264;-43
2023/07/25 02:31:02;;;;;;;7.70;4.07;;;15.90;99.90;;;;;;5097265;28;20472;-45
2023/07/25 02:33:28;;;;;;;7.87;4.00;;;16.00;99.90;;;;;;5079252;28;20176;-48
2023/07/25 02:35:53;;;;;;;7.50;4.17;;;15.90;99.90;;;;;;5096869;28;20160;-48
2023/07/25 02:38:19;;;;;;;7.40;4.10;;;15.90;99.90;;;;;;5079577;28;20175;-43
2023/07/25 02:40:44;;;;;;;11.43;4.70;;;15.90;99.90;;;;;;5078993;28;20217;-43
2023/07/25 02:43:10;;;;;;;6.23;5.10;;;15.90;99.90;;;;;;5097131;28;20176;-45
2023/07/25 02:45:35;;;;;;;11.47;5.57;;;15.90;99.90;;;;;;5079045;28;20236;-46
2023/07/25 02:48:01;;;;;;;9.43;5.33;;;15.90;99.90;;;;;;5078357;28;20183;-43
2023/07/25 02:50:27;;;;;;;7.73;4.63;;;15.70;99.90;;;;;;5095622;28;20200;-48
2023/07/25 02:52:53;;;;;;;15.00;5.00;;;15.80;99.90;;;;;;5077437;28;20191;-43
2023/07/25 02:55:19;;;;;;;10.20;4.00;;;15.70;99.90;;;;;;5078334;28;20179;-45
2023/07/25 02:57:44;;;;;;;6.40;3.80;;;15.60;99.90;;;;;;5077769;28;20420;-44
2023/07/25 03:00:10;;;;;;;9.57;4.97;;;15.50;99.90;;;;;;5097817;28;20186;-44
2023/07/25 03:02:36;;;;;;;9.87;4.40;;;15.60;99.90;;;;;;5115515;28;20171;-43
2023/07/25 03:05:01;;;;;;;7.23;4.13;;;15.50;99.90;;;;;;5097854;28;20182;-47
2023/07/25 03:07:27;;;;;;;7.57;4.10;;;15.50;99.90;;;;;;5097132;28;20186;-45
2023/07/25 03:09:53;;;;;;;6.13;4.20;;;15.50;99.90;;;;;;5097291;28;20242;-46
2023/07/25 03:12:19;;;;;;;7.33;3.83;;;15.50;99.90;;;;;;5115685;28;20190;-46
2023/07/25 03:14:44;;;;;;;6.10;4.50;;;15.40;99.90;;;;;;5098569;28;20485;-46
2023/07/25 03:17:10;;;;;;;10.07;4.73;;;15.50;99.90;;;;;;5098651;28;20183;-45
2023/07/25 03:19:35;;;;;;;6.73;5.23;;;15.50;99.90;;;;;;5099423;28;20262;-43
2023/07/25 03:22:01;;;;;;;9.50;5.40;;;15.50;99.90;;;;;;5099314;28;20175;-45
2023/07/25 03:24:27;;;;;;;4.67;3.93;;;15.50;99.90;;;;;;5116214;28;20211;-45
2023/07/25 03:26:52;;;;;;;7.97;4.30;;;15.60;99.90;;;;;;5115896;28;20167;-43
2023/07/25 03:29:18;;;;;;;10.97;5.10;;;15.60;99.90;;;;;;5097909;28;20303;-45
2023/07/25 03:31:43;;;;;;;5.63;4.43;;;15.60;99.90;;;;;;5098368;28;20181;-43
2023/07/25 03:34:09;;;;;;;9.87;4.87;;;15.50;99.90;;;;;;5098252;28;20167;-44
2023/07/25 03:36:35;;;;;;;10.80;5.80;;;15.50;99.90;;;;;;5098452;28;20595;-45
2023/07/25 03:39:00;;;;;;;7.00;4.10;;;15.50;99.90;;;;;;5098755;28;20163;-45
2023/07/25 03:41:26;;;;;;;8.67;4.80;;;15.40;99.90;;;;;;5098055;28;20199;-43
2023/07/25 03:43:51;;;;;;;8.23;5.03;;;15.40;99.90;;;;;;5098490;28;20525;-44
2023/07/25 03:46:16;;;;;;;6.57;4.40;;;15.40;99.90;;;;;;5095727;28;20194;-44
2023/07/25 03:52:04;;;;;;;6.67;5.97;;;15.30;99.90;;;;;;5113151;28;20535;-46
2023/07/25 03:54:30;;;;;;;9.10;5.23;;;15.40;99.90;;;;;;5094069;28;20624;-46
2023/07/25 03:56:56;;;;;;;9.97;5.50;;;15.40;99.90;;;;;;5095757;28;20280;-47
2023/07/25 03:59:21;;;;;;;10.07;5.53;;;15.40;99.90;;;;;;5080999;28;20232;-45
2023/07/25 04:01:47;;;;;;;7.63;4.57;;;15.40;99.90;;;;;;5076379;28;20332;-44
2023/07/25 04:04:12;;;;;;;11.13;4.43;;;15.40;99.90;;;;;;5076931;28;20270;-46
2023/07/25 04:06:39;;;;;;;13.53;5.13;;;15.40;99.90;;;;;;5094715;28;20200;-46
2023/07/25 04:09:05;;;;;;;7.57;5.20;;;15.50;99.90;;;;;;5077194;28;20172;-44
2023/07/25 04:11:31;;;;;;;5.87;4.63;;;15.50;99.90;;;;;;5077089;28;20269;-43
2023/07/25 04:13:56;;;;;;;6.60;3.67;;;15.50;99.90;;;;;;5076106;28;20229;-45
2023/07/25 04:16:22;;;;;;;8.13;4.83;;;15.50;99.90;;;;;;5075860;28;20174;-46
2023/07/25 04:18:48;;;;;;;7.90;4.80;;;15.50;99.90;;;;;;5093597;28;20480;-44
2023/07/25 04:21:14;;;;;;;9.97;4.70;;;15.40;99.90;;;;;;5074641;28;20179;-43
2023/07/25 04:23:39;;;;;;;5.13;4.20;;;15.50;99.90;;;;;;5090204;28;20176;-43
2023/07/25 04:26:05;;;;;;;10.97;5.27;;;15.50;99.90;;;;;;5089864;28;20172;-43
2023/07/25 04:28:30;;;;;;;6.53;4.33;;;15.50;99.90;;;;;;5072093;28;20244;-44
2023/07/25 04:30:56;;;;;;;7.10;5.07;;;15.50;99.90;;;;;;5090101;28;20207;-43
2023/07/25 04:33:21;;;;;;;7.40;5.20;;;15.50;99.90;;;;;;5072709;28;20274;-46
2023/07/25 04:35:47;;;;;;;11.73;5.90;;;15.50;99.90;;;;;;5090138;28;20168;-43
2023/07/25 04:38:13;;;;;;;11.40;5.90;;;15.50;99.90;;;;;;5072407;28;20168;-44
2023/07/25 04:40:39;;;;;;;8.30;5.17;;;15.40;99.90;;;;;;5073456;28;20183;-42
2023/07/25 04:43:05;;;;;;;6.33;4.97;;;15.50;99.90;;;;;;5073631;28;20176;-44
2023/07/25 04:45:30;;;;;;;9.40;5.63;;;15.40;99.90;;;;;;5090694;28;20186;-48
2023/07/25 04:47:56;;;;;;;7.80;5.83;;;15.40;99.90;;;;;;5072340;28;20186;-46
2023/07/25 04:50:22;;;;;;;9.83;6.30;;;15.40;99.90;;;;;;5090853;28;20459;-43
2023/07/25 04:52:47;;;;;;;7.67;5.20;;;15.40;99.90;;;;;;5073020;28;20427;-42
2023/07/25 04:55:13;;;;;;;7.43;6.27;;;15.50;99.90;;;;;;5072593;28;20168;-45
2023/07/25 04:57:39;;;;;;;14.13;7.47;;;15.40;99.90;;;;;;5090608;28;20179;-44
2023/07/25 05:00:07;;;;;;;9.13;6.90;;;15.40;99.90;;;;;;5072079;28;20254;-45
2023/07/25 05:02:33;;;;;;;8.30;6.30;;;15.40;99.90;;;;;;5071947;28;20371;-44
2023/07/25 05:04:59;;;;;;;13.97;7.13;;;15.40;99.90;;;;;;5072251;28;20172;-44
2023/07/25 05:07:25;;;;;;;10.63;6.73;;;15.40;99.90;;;;;;5072080;28;20199;-42
2023/07/25 05:09:50;;;;;;;11.03;6.13;;;15.40;99.90;;;;;;5090944;28;20572;-45
2023/07/25 05:12:16;;;;;;;7.77;5.27;;;15.40;99.90;;;;;;5073405;28;20168;-44
2023/07/25 05:14:41;;;;;;;10.73;5.97;;;15.40;99.90;;;;;;5074383;28;20471;-44
2023/07/25 05:17:07;;;;;;;8.17;5.90;;;15.50;99.90;;;;;;5077709;28;20237;-43
2023/07/25 05:19:33;;;;;;;10.00;5.83;;;15.50;99.90;;;;;;5078199;28;20279;-48
2023/07/25 05:21:59;;;;;;;7.10;5.60;;;15.60;99.90;;;;;;5078444;28;20164;-43
2023/07/25 05:24:25;;;;;;;8.47;5.60;;;15.60;99.90;;;;;;5077384;28;20423;-44
2023/07/25 05:26:50;;;;;;;6.63;5.33;;;15.60;99.90;;;;;;5078362;28;20164;-45
2023/07/25 05:29:16;;;;;;;8.87;6.67;;;15.60;99.90;;;;;;5079056;28;20170;-44
2023/07/25 05:31:41;;;;;;;6.50;5.90;;;15.60;99.90;;;;;;5077718;28;20268;-45
2023/07/25 05:34:07;;;;;;;8.77;5.80;;;15.60;99.90;;;;;;5077025;28;20183;-45
2023/07/25 05:36:33;;;;;;;7.73;6.10;;;15.60;99.90;;;;;;5076327;28;20164;-47
2023/07/25 05:38:58;;;;;;;13.73;5.80;;;15.60;99.90;;;;;;5076318;28;20176;-47
2023/07/25 05:41:24;;;;;;;10.07;6.50;;;15.60;99.90;;;;;;5091606;28;20179;-43
2023/07/25 05:43:49;;;;;;;9.97;6.50;;;15.60;99.90;;;;;;5074354;28;20186;-43
2023/07/25 05:46:15;;;;;;;11.03;6.10;;;15.60;99.90;;;;;;5075206;28;20225;-45
2023/07/25 05:48:40;;;;;;;9.20;6.73;;;15.60;99.90;;;;;;5094168;28;20294;-43
2023/07/25 05:51:06;;;;;;;11.10;6.50;;;15.60;99.90;;;;;;5075587;28;20192;-43
2023/07/25 05:53:32;;;;;;;9.17;5.13;;;15.70;99.90;;;;;;5092615;28;20546;-43
2023/07/25 05:55:57;;;;;;;6.50;5.20;;;15.60;99.90;;;;;;5091571;28;20161;-44
2023/07/25 05:58:23;;;;;;;7.73;6.27;;;15.70;99.90;;;;;;5073732;28;20329;-45
2023/07/25 06:00:49;;;;;;;11.20;5.60;;;15.80;99.90;;;;;;5091837;28;20213;-43
2023/07/25 06:03:15;;;;;;;8.97;5.53;;;15.80;99.90;;;;;;5074403;28;20248;-43
2023/07/25 06:05:41;;;;;;;9.27;6.70;;;15.90;99.90;;;;;;5074562;28;20183;-43
2023/07/25 06:08:08;;;;;;;13.50;7.47;;;15.80;99.90;;;;;;5075704;28;20262;-44
2023/07/25 06:10:35;;;;;;;12.73;7.63;;;15.90;99.90;;;;;;5074563;28;20203;-43
2023/07/25 06:13:01;;;;;;;9.50;6.37;;;15.90;99.90;;;;;;5093866;28;20164;-44
2023/07/25 06:15:28;;;;;;;11.63;7.17;;;15.90;99.90;;;;;;5093959;28;20198;-45
2023/07/25 06:17:54;;;;;;;7.53;5.30;;;15.90;99.90;;;;;;5094760;28;20202;-42
2023/07/25 06:20:19;;;;;;;7.00;5.93;;;15.90;99.90;;;;;;5076945;28;20279;-43
2023/07/25 06:22:45;;;;;;;9.97;7.27;;;16.00;99.90;;;;;;5093494;28;20583;-48
2023/07/25 06:25:14;;;;;;;9.43;8.63;;;16.00;99.90;;;;;;5075342;28;20224;-43
2023/07/25 06:27:39;;;;;;;10.13;8.37;;;16.00;99.90;;;;;;5075073;28;20172;-46
2023/07/25 06:30:06;;;;;;;7.90;7.13;;;16.10;99.90;;;;;;5074594;28;20298;-46
2023/07/25 06:32:32;;;;;;;7.60;6.90;;;16.10;99.90;;;;;;5074096;28;20176;-44
2023/07/25 06:34:57;;;;;;;7.43;6.47;;;16.10;99.90;;;;;;5075221;28;20333;-45
2023/07/25 06:37:23;;;;;;;11.17;8.07;;;16.10;99.90;;;;;;5075198;28;20182;-45
2023/07/25 06:39:48;;;;;;;9.47;7.50;;;16.20;99.90;;;;;;5073413;28;20172;-43
2023/07/25 06:42:14;;;;;;;10.80;7.53;;;16.20;99.90;;;;;;5071512;28;20168;-44
2023/07/25 06:44:40;;;;;;;13.17;7.97;;;16.20;99.90;;;;;;5070257;28;20172;-47
2023/07/25 06:47:05;;;;;;;7.43;5.60;;;16.30;99.90;;;;;;5068821;28;20249;-43
2023/07/25 06:49:31;;;;;;;10.20;5.77;;;16.30;99.90;;;;;;5085125;28;20160;-42
2023/07/25 06:51:56;;;;;;;10.00;5.90;;;16.30;99.90;;;;;;5065642;28;20164;-45
2023/07/25 06:54:23;;;;;;;6.83;5.53;;;16.30;99.90;;;;;;5064916;28;20462;-47
2023/07/25 06:56:48;;;;;;;8.30;5.80;;;16.30;99.90;;;;;;5066181;28;20177;-43
2023/07/25 06:59:14;;;;;;;10.40;5.37;;;16.30;99.90;;;;;;5066160;28;20618;-43
2023/07/25 07:01:39;;;;;;;9.80;6.00;;;16.40;99.90;;;;;;5066923;28;20176;-43
2023/07/25 07:04:05;;;;;;;11.00;7.50;;;16.40;99.90;;;;;;5066648;28;20175;-43
2023/07/25 07:06:31;;;;;;;10.47;7.00;;;16.40;99.90;;;;;;5085296;28;20397;-43
2023/07/25 07:08:57;;;;;;;14.40;9.37;;;16.40;99.90;;;;;;5067928;28;20174;-44
2023/07/25 07:11:23;;;;;;;9.83;8.83;;;16.50;99.90;;;;;;5067400;28;20348;-46
2023/07/25 07:13:48;;;;;;;12.77;8.77;;;16.60;99.90;;;;;;5067678;28;20638;-45
2023/07/25 07:16:14;;;;;;;13.03;8.57;;;16.60;99.90;;;;;;5067667;28;20248;-45
2023/07/25 07:18:39;;;;;;;19.97;18.70;;;16.60;99.90;;;;;;5086006;28;20156;-44
2023/07/25 07:21:05;;;;;;;24.53;23.03;;;16.70;99.90;;;;;;5084890;28;20264;-42
2023/07/25 07:23:31;;;;;;;33.70;31.50;;;16.70;99.90;;;;;;5064573;28;20161;-44
2023/07/25 07:25:57;;;;;;;27.17;25.37;;;16.70;99.90;;;;;;5064523;28;20172;-43
2023/07/25 07:28:22;;;;;;;31.90;29.70;;;16.80;99.90;;;;;;5067518;28;20168;-46
2023/07/25 07:30:49;;;;;;;36.43;33.83;;;16.80;99.90;;;;;;5069000;28;20397;-43
2023/07/25 07:33:16;;;;;;;32.70;30.63;;;16.80;99.90;;;;;;5069372;28;20303;-43
2023/07/25 07:35:42;;;;;;;35.57;33.20;;;16.70;99.90;;;;;;5068264;28;20221;-43
2023/07/25 07:38:08;;;;;;;27.97;25.33;;;16.70;99.90;;;;;;5068347;28;20496;-46
2023/07/25 07:40:35;;;;;;;33.43;31.40;;;16.70;99.90;;;;;;5068608;28;20207;-46
2023/07/25 07:43:01;;;;;;;36.07;33.83;;;16.80;99.90;;;;;;5086915;28;20175;-44
2023/07/25 07:45:27;;;;;;;25.30;23.70;;;16.90;99.90;;;;;;5069509;28;20773;-46
2023/07/25 07:47:53;;;;;;;14.27;13.00;;;17.00;99.90;;;;;;5090233;28;20416;-47
2023/07/25 07:50:19;;;;;;;11.90;10.80;;;17.00;99.90;;;;;;5072556;28;20203;-43
2023/07/25 07:52:44;;;;;;;11.93;10.97;;;16.90;99.90;;;;;;5091767;28;20159;-47
2023/07/25 07:55:11;;;;;;;13.10;11.93;;;16.90;99.90;;;;;;5073309;28;20195;-45
2023/07/25 07:57:45;;;;;;;10.43;6.33;;;16.80;99.90;;;;;;5070706;28;20275;-46
2023/07/25 08:00:13;;;;;;;7.00;4.70;;;16.80;99.90;;;;;;5089956;28;20184;-44
2023/07/25 08:02:39;;;;;;;11.83;5.47;;;16.80;99.90;;;;;;5089402;28;20171;-43
2023/07/25 08:05:05;;;;;;;6.93;3.87;;;16.70;99.90;;;;;;5070302;28;20168;-44
2023/07/25 08:07:31;;;;;;;12.57;4.23;;;16.70;99.90;;;;;;5070949;28;20221;-44
2023/07/25 08:09:58;;;;;;;6.20;3.47;;;16.70;99.90;;;;;;5068625;28;20207;-45
2023/07/25 08:12:24;;;;;;;8.87;4.07;;;16.80;99.90;;;;;;5070529;28;20707;-45
2023/07/25 08:14:50;;;;;;;8.47;4.70;;;16.90;99.90;;;;;;5073960;28;20207;-44
2023/07/25 08:17:16;;;;;;;6.43;3.30;;;16.90;99.90;;;;;;5091013;28;20198;-43
2023/07/25 08:19:42;;;;;;;12.87;8.70;;;17.00;99.90;;;;;;5074084;28;20171;-46
2023/07/25 08:22:10;;;;;;;22.17;20.87;;;17.00;99.90;;;;;;5092729;28;20164;-43
2023/07/25 08:24:36;;;;;;;28.87;26.83;;;17.00;99.90;;;;;;5074436;28;20176;-44
2023/07/25 08:27:01;;;;;;;17.73;16.37;;;16.90;99.90;;;;;;5074898;28;20179;-45
2023/07/25 08:29:27;;;;;;;9.00;5.50;;;16.90;99.90;;;;;;5092247;28;20318;-47
2023/07/25 08:31:53;;;;;;;8.87;4.33;;;16.80;99.90;;;;;;5093466;28;20621;-46
2023/07/25 08:34:20;;;;;;;8.23;4.47;;;16.80;99.90;;;;;;5077027;28;20190;-45
2023/07/25 08:36:54;;;;;;;11.40;5.33;;;16.80;99.90;;;;;;5077131;28;20178;-44
2023/07/25 08:39:20;;;;;;;7.93;5.57;;;16.90;99.90;;;;;;5077961;28;20167;-44
2023/07/25 08:41:53;;;;;;;12.50;5.03;;;16.90;99.90;;;;;;5094171;28;20253;-45
2023/07/25 08:44:22;;;;;;;7.63;4.63;;;16.90;99.90;;;;;;5093011;28;20168;-44
2023/07/25 08:46:51;;;;;;;8.97;3.80;;;17.00;99.90;;;;;;5093034;28;20208;-44
2023/07/25 08:49:19;;;;;;;5.97;3.60;;;17.00;99.90;;;;;;5076902;28;20259;-44
2023/07/25 08:51:51;;;;;;;7.30;4.73;;;17.00;99.90;;;;;;5079250;28;20195;-45
2023/07/25 08:54:33;;;;;;;7.00;4.23;;;17.10;99.90;;;;;;5079514;28;20172;-45
2023/07/25 08:57:02;;;;;;;5.33;3.43;;;17.20;99.90;;;;;;5078644;28;20163;-43
2023/07/25 08:59:29;;;;;;;7.60;3.63;;;17.30;99.90;;;;;;5079041;28;20228;-47
2023/07/25 09:01:55;;;;;;;19.67;16.20;;;17.40;99.90;;;;;;5080196;28;20179;-47
2023/07/25 09:04:23;;;;;;;33.53;31.63;;;17.40;99.90;;;;;;5079283;28;20234;-44
2023/07/25 09:06:48;;;;;;;33.57;31.50;;;17.40;99.90;;;;;;5077764;28;20758;-44
2023/07/25 09:09:14;;;;;;;26.57;24.87;;;17.40;99.90;;;;;;5079332;28;20169;-47
2023/07/25 09:11:41;;;;;;;26.87;25.27;;;17.40;99.90;;;;;;5078602;28;20265;-46
2023/07/25 09:14:07;;;;;;;24.07;22.53;;;17.40;99.90;;;;;;5079304;28;20200;-43
2023/07/25 09:16:33;;;;;;;23.53;22.13;;;17.30;99.90;;;;;;5080770;28;20222;-48
2023/07/25 09:18:59;;;;;;;24.57;22.93;;;17.30;99.90;;;;;;5097823;28;20206;-46
2023/07/25 09:21:26;;;;;;;21.73;20.23;;;17.20;99.90;;;;;;5098120;28;20471;-46
2023/07/25 09:23:54;;;;;;;17.40;16.20;;;17.10;99.90;;;;;;5080943;28;20200;-46
2023/07/25 09:26:27;;;;;;;20.63;19.30;;;17.00;99.90;;;;;;5096966;28;20255;-46
2023/07/25 09:28:55;;;;;;;19.17;17.80;;;17.00;99.90;;;;;;5079236;28;20262;-48
2023/07/25 09:31:22;;;;;;;19.20;17.97;;;16.90;99.90;;;;;;5078408;28;20264;-45
2023/07/25 09:33:49;;;;;;;21.20;19.87;;;16.70;99.90;;;;;;5074998;28;20168;-47
2023/07/25 09:36:16;;;;;;;17.63;16.43;;;16.60;99.90;;;;;;5078802;28;20172;-46
2023/07/25 09:38:57;;;;;;;16.97;16.00;;;16.60;99.90;;;;;;5078529;28;20190;-46
2023/07/25 09:41:24;;;;;;;14.33;13.50;;;16.50;99.90;;;;;;5078095;28;20234;-44
2023/07/25 09:43:51;;;;;;;20.90;19.57;;;16.40;99.90;;;;;;5076084;28;20172;-43
2023/07/25 09:46:17;;;;;;;20.97;19.87;;;16.40;99.90;;;;;;5075473;28;20647;-44
2023/07/25 09:48:45;;;;;;;21.63;20.33;;;16.40;99.90;;;;;;5076879;28;20180;-45
2023/07/25 09:51:12;;;;;;;19.40;18.17;;;16.30;99.90;;;;;;5076288;28;20290;-46
2023/07/25 09:53:41;;;;;;;22.83;21.43;;;16.30;99.90;;;;;;5076145;28;20200;-48
2023/07/25 09:56:07;;;;;;;11.23;10.20;;;16.30;99.90;;;;;;5076271;28;20175;-43
2023/07/25 09:58:33;;;;;;;8.60;5.97;;;16.40;99.90;;;;;;5101373;28;20224;-43
2023/07/25 10:00:59;;;;;;;5.37;3.53;;;16.50;99.90;;;;;;5096160;28;20630;-43
2023/07/25 10:03:28;;;;;;;5.20;3.33;;;16.50;99.90;;;;;;5097117;28;20171;-46
2023/07/25 10:05:54;;;;;;;4.90;3.40;;;16.70;99.90;;;;;;5098872;28;20195;-43
2023/07/25 10:08:21;;;;;;;14.10;3.73;;;16.70;99.90;;;;;;5100461;28;20195;-46
2023/07/25 10:11:11;;;;;;;7.20;4.17;;;16.90;99.90;;;;;;5117259;28;20194;-44
2023/07/25 10:30:28;;;;;;;4.30;3.90;;;17.40;99.90;;;;;;5100153;28;20246;-47
2023/07/25 10:32:58;;;;;;;4.50;3.60;;;17.60;99.90;;;;;;5074189;28;20172;-45
2023/07/25 10:35:50;;;;;;;5.17;3.97;;;17.70;99.90;;;;;;5070236;28;20447;-43
2023/07/25 10:38:43;;;;;;;12.00;10.97;;;17.70;99.90;;;;;;5070212;28;20572;-43
2023/07/25 10:41:08;;;;;;;33.40;31.40;;;17.80;99.90;;;;;;5077910;28;20491;-46
2023/07/25 10:43:46;;;;;;;27.43;25.53;;;17.80;99.90;;;;;;5068990;28;20849;-43
2023/07/25 10:46:15;;;;;;;42.17;39.70;;;17.90;99.90;;;;;;5070323;28;20551;-47
2023/07/25 10:48:52;;;;;;;45.27;42.70;;;17.90;99.90;;;;;;5071855;28;20532;-43
2023/07/25 10:51:19;;;;;;;25.80;24.07;;;17.90;99.90;;;;;;5070994;28;20685;-47
2023/07/25 10:54:10;;;;;;;22.80;21.43;;;18.00;99.90;;;;;;5087536;28;20156;-46
2023/07/25 10:56:40;;;;;;;28.83;26.97;;;18.10;99.90;;;;;;5070094;28;20170;-46
2023/07/25 10:59:10;;;;;;;23.97;22.33;;;18.20;99.90;;;;;;5070096;28;20175;-43
2023/07/25 11:01:47;;;;;;;22.40;20.97;;;18.30;99.90;;;;;;5068313;28;20186;-44
2023/07/25 11:04:28;;;;;;;23.67;21.93;;;18.30;99.90;;;;;;5065834;28;20190;-44
2023/07/25 11:07:09;;;;;;;20.73;19.60;;;18.20;99.90;;;;;;5066343;28;20168;-44
2023/07/25 11:09:40;;;;;;;18.40;17.03;;;18.20;99.90;;;;;;5084790;28;20172;-44
2023/07/25 11:12:09;;;;;;;17.70;16.43;;;18.10;99.90;;;;;;5070034;28;20226;-43
2023/07/25 11:14:41;;;;;;;17.83;16.73;;;18.00;99.90;;;;;;5090674;28;20552;-46
2023/07/25 11:17:07;;;;;;;18.87;17.57;;;18.00;99.90;;;;;;5073779;28;20176;-44
2023/07/25 11:19:32;;;;;;;18.33;17.10;;;18.00;99.90;;;;;;5076014;28;20263;-47
2023/07/25 11:21:58;;;;;;;27.07;25.37;;;18.00;99.90;;;;;;5076459;28;20262;-45
2023/07/25 11:24:24;;;;;;;17.37;16.27;;;18.00;99.90;;;;;;5095739;28;20172;-44
2023/07/25 11:26:49;;;;;;;15.03;14.13;;;17.90;99.90;;;;;;5094974;28;20172;-47
2023/07/25 11:29:17;;;;;;;12.27;11.37;;;17.90;99.90;;;;;;5077186;28;20242;-47
2023/07/25 11:31:49;;;;;;;18.77;17.23;;;17.90;99.90;;;;;;5076877;28;20303;-44
2023/07/25 11:34:17;;;;;;;20.77;19.43;;;17.80;99.90;;;;;;5075900;28;20177;-43
2023/07/25 11:36:47;;;;;;;20.83;19.20;;;17.90;99.90;;;;;;5093311;28;20263;-45
2023/07/25 11:39:13;;;;;;;29.50;27.83;;;17.90;99.90;;;;;;5093137;28;20171;-44
2023/07/25 11:41:40;;;;;;;24.33;22.53;;;17.90;99.90;;;;;;5075422;28;20168;-43
2023/07/25 11:44:11;;;;;;;37.23;34.80;;;17.80;99.90;;;;;;5073943;28;20218;-49
2023/07/25 11:46:43;;;;;;;35.40;33.10;;;17.80;99.90;;;;;;5073252;28;20176;-43
2023/07/25 11:49:10;;;;;;;38.97;36.73;;;17.90;99.90;;;;;;5090238;28;20160;-45
2023/07/25 11:51:37;;;;;;;40.87;38.43;;;17.90;99.90;;;;;;5090916;28;20450;-43
2023/07/25 11:54:04;;;;;;;46.93;44.03;;;18.10;99.90;;;;;;5073458;28;20721;-46
2023/07/25 11:56:33;;;;;;;44.33;41.73;;;18.20;99.90;;;;;;5072509;28;20563;-45
2023/07/25 11:58:59;;;;;;;31.57;29.50;;;18.50;99.90;;;;;;5073917;28;20450;-45
2023/07/25 12:01:30;;;;;;;17.67;16.43;;;18.80;99.90;;;;;;5090900;28;20751;-44
2023/07/25 12:03:56;;;;;;;7.73;7.03;;;19.20;99.90;;;;;;5074436;28;20182;-47
2023/07/25 12:06:32;;;;;;;13.27;12.27;;;19.50;99.90;;;;;;5073601;28;20176;-47
2023/07/25 12:09:00;;;;;;;51.13;48.40;;;19.80;99.90;;;;;;5073403;28;20225;-45
2023/07/25 12:11:26;;;;;;;87.73;83.10;;;20.10;99.90;;;;;;5073458;28;20210;-48
2023/07/25 12:13:56;;;;;;;60.37;57.20;;;20.40;99.90;;;;;;5091532;28;20152;-48
2023/07/25 12:16:35;;;;;;;14.37;13.03;;;20.70;99.90;;;;;;5090995;28;20275;-47
2023/07/25 12:19:14;;;;;;;7.67;2.30;;;20.90;99.90;;;;;;5072862;28;20168;-51
2023/07/25 12:21:43;;;;;;;3.33;2.73;;;20.70;99.90;;;;;;5072551;28;20225;-48
2023/07/25 12:24:15;;;;;;;7.43;2.37;;;20.50;99.90;;;;;;5090164;28;20156;-46
2023/07/25 12:26:49;;;;;;;4.47;3.27;;;20.40;99.90;;;;;;5072602;28;20233;-45
2023/07/25 12:29:24;;;;;;;3.37;1.33;;;20.50;99.90;;;;;;5072494;28;20783;-44
2023/07/25 12:31:50;;;;;;;4.60;1.53;;;20.60;99.90;;;;;;5089309;28;20203;-46
2023/07/25 12:34:20;;;;;;;1.97;0.80;;;20.50;99.90;;;;;;5091550;28;20548;-44
2023/07/25 12:36:46;;;;;;;3.67;1.20;;;20.40;99.90;;;;;;5090176;28;20187;-44
2023/07/25 12:39:12;;;;;;;6.30;1.80;;;20.50;99.90;;;;;;5073405;28;20575;-44
2023/07/25 12:41:38;;;;;;;2.87;1.27;;;20.60;99.90;;;;;;5074443;28;20179;-44
2023/07/25 12:44:03;;;;;;;4.60;1.20;;;20.60;99.90;;;;;;5074397;28;20361;-50
2023/07/25 12:46:29;;;;;;;2.60;1.00;;;20.70;99.90;;;;;;5092068;28;20168;-48
2023/07/25 12:48:55;;;;;;;3.77;1.00;;;20.80;99.90;;;;;;5091745;28;20183;-46
2023/07/25 12:51:20;;;;;;;2.50;1.20;;;21.10;99.90;;;;;;5073952;28;20239;-45
2023/07/25 12:53:46;;;;;;;7.03;1.20;;;21.20;99.90;;;;;;5074382;28;20168;-46
2023/07/25 12:56:11;;;;;;;2.00;0.80;;;21.10;99.90;;;;;;5074853;28;20168;-43
2023/07/25 12:58:37;;;;;;;5.57;1.13;;;20.80;99.90;;;;;;5074237;28;20168;-45
2023/07/25 13:01:03;;;;;;;4.73;1.13;;;20.60;99.90;;;;;;5075325;28;20221;-46